ADDS METAR Data INFO
IDs: Format: Raw Decoded Include TAF

Data at: 1105 UTC 24 Nov 2017

KGOP 241055Z AUTO 00000KT 10SM CLR 06/M00 A2998 RMK AO2
KGOP 241035Z AUTO 00000KT 10SM CLR 05/00 A2999 RMK AO2
KGOP 241015Z AUTO 00000KT 10SM CLR 05/00 A2999 RMK AO2
KGOP 240955Z AUTO 00000KT 10SM CLR 05/M00 A3000 RMK AO2
KGOP 240935Z AUTO 00000KT 10SM CLR 05/M00 A3001 RMK AO2
KGOP 240915Z AUTO 00000KT 10SM CLR 06/M00 A3001 RMK AO2
KGOP 240855Z AUTO 00000KT 10SM CLR 06/M00 A3001 RMK AO2
KGOP 240835Z AUTO 00000KT 10SM CLR 06/M00 A3002 RMK AO2
KGOP 240815Z AUTO 00000KT 10SM CLR 06/00 A3003 RMK AO2
KGOP 240755Z AUTO 00000KT 10SM CLR 08/00 A3003 RMK AO2
KGOP 240735Z AUTO 00000KT 10SM CLR 10/M01 A3003 RMK AO2
KGOP 240715Z AUTO 00000KT 10SM CLR 09/M01 A3004 RMK AO2
KGOP 240655Z AUTO 00000KT 10SM CLR 10/M01 A3005 RMK AO2
KGOP 240635Z AUTO 00000KT 10SM CLR 10/M01 A3006 RMK AO2
KGOP 240615Z AUTO 00000KT 10SM CLR 10/M01 A3006 RMK AO2
KGOP 240555Z AUTO 00000KT 10SM CLR 09/M00 A3006 RMK AO2
KGOP 240535Z AUTO 00000KT 10SM CLR 11/M01 A3006 RMK AO2
KGOP 240515Z AUTO 00000KT 10SM CLR 11/M01 A3007 RMK AO2
KGOP 240455Z AUTO 00000KT 10SM CLR 12/M01 A3008 RMK AO2
KGOP 240435Z AUTO 00000KT 10SM CLR 13/M01 A3008 RMK AO2
KGOP 240415Z AUTO 16003KT 10SM CLR 12/M01 A3008 RMK AO2
KGOP 240355Z AUTO 16005KT 10SM CLR 13/M01 A3008 RMK AO2
KGOP 240335Z AUTO 15006KT 10SM CLR 12/M01 A3008 RMK AO2
KGOP 240315Z AUTO 14005KT 10SM CLR 12/M01 A3009 RMK AO2
KGOP 240255Z AUTO 15006KT 10SM CLR 12/M01 A3009 RMK AO2
KGOP 240235Z AUTO 15005KT 10SM CLR 12/M00 A3009 RMK AO2
KGOP 240215Z AUTO 00000KT 10SM CLR 12/M01 A3008 RMK AO2
KGOP 240155Z AUTO 15005KT 10SM CLR 13/M01 A3008 RMK AO2
KGOP 240135Z AUTO 16006KT 10SM CLR 14/M01 A3008 RMK AO2
KGOP 240115Z AUTO 14004KT 10SM CLR 14/00 A3008 RMK AO2
KGOP 240055Z AUTO 16005KT 10SM CLR 14/00 A3008 RMK AO2
KGOP 240035Z AUTO 14004KT 10SM CLR 14/01 A3008 RMK AO2
KGOP 240015Z AUTO 14004KT 10SM CLR 16/01 A3008 RMK AO2
KGOP 232355Z AUTO 13004KT 10SM CLR 17/01 A3008 RMK AO2
KGOP 232335Z AUTO 00000KT 10SM CLR 18/00 A3007 RMK AO2
KGOP 232315Z AUTO 00000KT 10SM CLR 20/M01 A3008 RMK AO2
KGOP 232255Z AUTO 00000KT 10SM CLR 21/M01 A3007 RMK AO2
KGOP 232235Z AUTO 00000KT 10SM CLR 21/M01 A3007 RMK AO2
KGOP 232215Z AUTO 00000KT 10SM CLR 21/M01 A3007 RMK AO2
KGOP 232155Z AUTO 00000KT 10SM CLR 21/M01 A3006 RMK AO2
KGOP 232135Z AUTO 00000KT 10SM CLR 21/M02 A3007 RMK AO2
KGOP 232115Z AUTO 00000KT 10SM CLR 22/M01 A3007 RMK AO2
KGOP 232055Z AUTO 00000KT 10SM CLR 21/M01 A3008 RMK AO2
KGOP 232035Z AUTO 00000KT 10SM CLR 21/M01 A3008 RMK AO2
KGOP 232015Z AUTO 00000KT 10SM CLR 21/M01 A3008 RMK AO2
KGOP 231955Z AUTO 00000KT 10SM CLR 20/M01 A3009 RMK AO2
KGOP 231935Z AUTO 00000KT 10SM CLR 20/M02 A3010 RMK AO2
KGOP 231915Z AUTO VRB04KT 10SM CLR 20/M02 A3012 RMK AO2
KGOP 231855Z AUTO 00000KT 10SM CLR 19/M03 A3013 RMK AO2
KGOP 231835Z AUTO 00000KT 10SM CLR 19/M03 A3014 RMK AO2
KGOP 231815Z AUTO 00000KT 10SM CLR 18/M03 A3016 RMK AO2
KGOP 231755Z AUTO 00000KT 10SM CLR 18/M03 A3017 RMK AO2
KGOP 231735Z AUTO 00000KT 10SM CLR 17/M02 A3019 RMK AO2
KGOP 231715Z AUTO 00000KT 10SM CLR 16/M02 A3020 RMK AO2
KGOP 231655Z AUTO 19003KT 10SM CLR 15/M02 A3022 RMK AO2
KGOP 231635Z AUTO 00000KT 10SM CLR 15/M02 A3022 RMK AO2
KGOP 231615Z AUTO 00000KT 10SM CLR 14/M03 A3022 RMK AO2
KGOP 231555Z AUTO 24004KT 10SM CLR 12/M03 A3023 RMK AO2
KGOP 231535Z AUTO 00000KT 10SM CLR 10/M01 A3023 RMK AO2
KGOP 231515Z AUTO 00000KT 10SM CLR 09/M01 A3023 RMK AO2
KGOP 231455Z AUTO 00000KT 10SM CLR 06/M01 A3023 RMK AO2
KGOP 231435Z AUTO 00000KT 10SM CLR 05/M02 A3023 RMK AO2
KGOP 231415Z AUTO 00000KT 10SM CLR 03/M01 A3023 RMK AO2
KGOP 231355Z AUTO 00000KT 10SM CLR 01/M03 A3023 RMK AO2
KGOP 231335Z AUTO 00000KT 10SM CLR M00/M03 A3023 RMK AO2
KGOP 231315Z AUTO 00000KT 10SM CLR M00/M03 A3023 RMK AO2
KGOP 231255Z AUTO 00000KT 10SM CLR M01/M04 A3022 RMK AO2
KGOP 231235Z AUTO 00000KT 10SM CLR M00/M03 A3022 RMK AO2
KGOP 231215Z AUTO 00000KT 10SM CLR M00/M04 A3022 RMK AO2
KGOP 231155Z AUTO 00000KT 10SM CLR M01/M04 A3022 RMK AO2
KGOP 231135Z AUTO 00000KT 10SM CLR M00/M04 A3022 RMK AO2
KGOP 231115Z AUTO 00000KT 10SM CLR M00/M03 A3022 RMK AO2
KGOP 231055Z AUTO 00000KT 10SM CLR 01/M04 A3022 RMK AO2
KGOP 231035Z AUTO 00000KT 10SM CLR 00/M03 A3022 RMK AO2
KGOP 231015Z AUTO 00000KT 10SM CLR M00/M04 A3022 RMK AO2
KGOP 230955Z AUTO 00000KT 10SM CLR M00/M03 A3023 RMK AO2
KGOP 230935Z AUTO 00000KT 10SM CLR 00/M03 A3024 RMK AO2
KGOP 230915Z AUTO 00000KT 10SM CLR 00/M04 A3024 RMK AO2
KGOP 230855Z AUTO 00000KT 10SM CLR M00/M04 A3024 RMK AO2
KGOP 230835Z AUTO 00000KT 10SM CLR 00/M03 A3025 RMK AO2
KGOP 230815Z AUTO 00000KT 10SM CLR 01/M03 A3026 RMK AO2
KGOP 230755Z AUTO 00000KT 10SM CLR 00/M04 A3026 RMK AO2
KGOP 230735Z AUTO 00000KT 10SM CLR 01/M03 A3026 RMK AO2
KGOP 230715Z AUTO 00000KT 10SM CLR 01/M03 A3026 RMK AO2
KGOP 230655Z AUTO 00000KT 10SM CLR 02/M03 A3027 RMK AO2
KGOP 230635Z AUTO 00000KT 10SM CLR 01/M04 A3027 RMK AO2
KGOP 230615Z AUTO 00000KT 10SM CLR 02/M04 A3027 RMK AO2
KGOP 230555Z AUTO 00000KT 10SM CLR 01/M04 A3028 RMK AO2
KGOP 230535Z AUTO 00000KT 10SM CLR 02/M04 A3028 RMK AO2
KGOP 230515Z AUTO 00000KT 10SM CLR 02/M04 A3029 RMK AO2
KGOP 230455Z AUTO 00000KT 10SM CLR 02/M03 A3030 RMK AO2
KGOP 230435Z AUTO 00000KT 10SM CLR 02/M03 A3031 RMK AO2
KGOP 230415Z AUTO 00000KT 10SM CLR 02/M03 A3031 RMK AO2
KGOP 230355Z AUTO 00000KT 10SM CLR 03/M03 A3030 RMK AO2
KGOP 230335Z AUTO 00000KT 10SM CLR 03/M03 A3031 RMK AO2
KGOP 230315Z AUTO 00000KT 10SM CLR 03/M03 A3031 RMK AO2
KGOP 230255Z AUTO 00000KT 10SM CLR 04/M03 A3031 RMK AO2
KGOP 230235Z AUTO 00000KT 10SM CLR 06/M05 A3030 RMK AO2
KGOP 230215Z AUTO 00000KT 10SM CLR 05/M04 A3030 RMK AO2
KGOP 230155Z AUTO 00000KT 10SM CLR 06/M05 A3030 RMK AO2
KGOP 230135Z AUTO 00000KT 10SM CLR 06/M05 A3029 RMK AO2
KGOP 230115Z AUTO 00000KT 10SM CLR 08/M06 A3030 RMK AO2
KGOP 230055Z AUTO 00000KT 10SM CLR 09/M06 A3030 RMK AO2
KGOP 230035Z AUTO 00000KT 10SM CLR 10/M07 A3030 RMK AO2
KGOP 230015Z AUTO 00000KT 10SM CLR 10/M07 A3030 RMK AO2
KGOP 222355Z AUTO 00000KT 10SM CLR 11/M07 A3030 RMK AO2
KGOP 222335Z AUTO 36005KT 10SM CLR 11/M07 A3029 RMK AO2
KGOP 222315Z AUTO 00000KT 10SM CLR 12/M08 A3029 RMK AO2